Terminal Aerodrome Forecast
Issued by NWS Cleveland, OH

Home | Current Version | Previous Version | Text Only | Print | Product List | Glossary Off
Versions: 1 2 3 4 5 6 7 8 9 10 11 12 13 14 15 16 17 18 19 20 21 22 23

000
FTUS41 KCLE 170500 AAA
TAFMFD
TAF AMD
KMFD 170557Z 1706/1806 24005KT 5SM BR BKN007
     FM170800 26003KT 3SM BR VCSH OVC007
      TEMPO 1709/1712 2SM BR OVC007
     FM171200 29004KT 6SM BR VCSH SCT015 OVC025
     FM171500 31004KT P6SM BKN035
     FM171900 35006KT P6SM SCT040 BKN090=

USA.gov is the U.S. government's official web portal to all federal, state and local government web resources and services.